sensor_id;sensor_type;location;lat;lon;timestamp;P1;durP1;ratioP1;P2;durP2;ratioP2
14584;SDS011;7379;51.506;11.876;2023-08-21T00:00:07;7.30;;;4.88;;
14584;SDS011;7379;51.506;11.876;2023-08-21T00:02:34;6.03;;;5.05;;
14584;SDS011;7379;51.506;11.876;2023-08-21T00:05:01;7.43;;;5.07;;
14584;SDS011;7379;51.506;11.876;2023-08-21T00:07:28;5.80;;;5.30;;
14584;SDS011;7379;51.506;11.876;2023-08-21T00:09:54;5.70;;;5.20;;
14584;SDS011;7379;51.506;11.876;2023-08-21T00:12:21;7.20;;;5.60;;
14584;SDS011;7379;51.506;11.876;2023-08-21T00:14:48;5.82;;;5.13;;
14584;SDS011;7379;51.506;11.876;2023-08-21T00:17:16;5.47;;;4.88;;
14584;SDS011;7379;51.506;11.876;2023-08-21T00:19:43;6.28;;;5.13;;
14584;SDS011;7379;51.506;11.876;2023-08-21T00:22:09;5.88;;;4.97;;
14584;SDS011;7379;51.506;11.876;2023-08-21T00:24:36;6.10;;;5.50;;
14584;SDS011;7379;51.506;11.876;2023-08-21T00:27:03;7.15;;;5.13;;
14584;SDS011;7379;51.506;11.876;2023-08-21T00:29:29;5.88;;;5.28;;
14584;SDS011;7379;51.506;11.876;2023-08-21T00:31:56;5.80;;;5.30;;
14584;SDS011;7379;51.506;11.876;2023-08-21T00:34:24;6.10;;;5.50;;
14584;SDS011;7379;51.506;11.876;2023-08-21T00:36:51;7.05;;;5.53;;
14584;SDS011;7379;51.506;11.876;2023-08-21T00:39:17;5.88;;;5.35;;
14584;SDS011;7379;51.506;11.876;2023-08-21T00:41:44;6.07;;;4.95;;
14584;SDS011;7379;51.506;11.876;2023-08-21T00:44:11;5.43;;;4.93;;
14584;SDS011;7379;51.506;11.876;2023-08-21T00:46:38;5.43;;;4.93;;
14584;SDS011;7379;51.506;11.876;2023-08-21T00:49:05;5.53;;;5.03;;
14584;SDS011;7379;51.506;11.876;2023-08-21T00:51:33;6.10;;;5.32;;
14584;SDS011;7379;51.506;11.876;2023-08-21T00:53:59;6.78;;;5.40;;
14584;SDS011;7379;51.506;11.876;2023-08-21T00:56:26;8.82;;;5.20;;
14584;SDS011;7379;51.506;11.876;2023-08-21T00:58:53;5.47;;;4.97;;
14584;SDS011;7379;51.506;11.876;2023-08-21T01:01:21;5.35;;;4.88;;
14584;SDS011;7379;51.506;11.876;2023-08-21T01:03:50;6.25;;;5.07;;
14584;SDS011;7379;51.506;11.876;2023-08-21T01:06:18;5.25;;;4.85;;
14584;SDS011;7379;51.506;11.876;2023-08-21T01:08:49;5.43;;;4.70;;
14584;SDS011;7379;51.506;11.876;2023-08-21T01:11:23;5.50;;;5.00;;
14584;SDS011;7379;51.506;11.876;2023-08-21T01:13:59;5.93;;;4.95;;
14584;SDS011;7379;51.506;11.876;2023-08-21T01:16:32;5.85;;;4.70;;
14584;SDS011;7379;51.506;11.876;2023-08-21T01:19:00;5.10;;;4.65;;
14584;SDS011;7379;51.506;11.876;2023-08-21T01:21:29;5.88;;;4.78;;
14584;SDS011;7379;51.506;11.876;2023-08-21T01:23:57;5.45;;;4.95;;
14584;SDS011;7379;51.506;11.876;2023-08-21T01:26:24;5.40;;;4.90;;
14584;SDS011;7379;51.506;11.876;2023-08-21T01:28:51;6.45;;;5.05;;
14584;SDS011;7379;51.506;11.876;2023-08-21T01:31:18;5.53;;;4.95;;
14584;SDS011;7379;51.506;11.876;2023-08-21T01:33:51;5.85;;;5.03;;
14584;SDS011;7379;51.506;11.876;2023-08-21T01:36:21;4.65;;;4.25;;
14584;SDS011;7379;51.506;11.876;2023-08-21T01:38:49;6.22;;;4.70;;
14584;SDS011;7379;51.506;11.876;2023-08-21T01:41:18;6.47;;;4.82;;
14584;SDS011;7379;51.506;11.876;2023-08-21T01:43:44;6.13;;;4.82;;
14584;SDS011;7379;51.506;11.876;2023-08-21T01:46:11;5.32;;;4.82;;
14584;SDS011;7379;51.506;11.876;2023-08-21T01:48:38;5.30;;;4.78;;
14584;SDS011;7379;51.506;11.876;2023-08-21T01:51:05;4.90;;;4.40;;
14584;SDS011;7379;51.506;11.876;2023-08-21T01:53:32;6.57;;;4.90;;
14584;SDS011;7379;51.506;11.876;2023-08-21T01:55:58;7.47;;;5.13;;
14584;SDS011;7379;51.506;11.876;2023-08-21T01:58:27;5.65;;;4.47;;
14584;SDS011;7379;51.506;11.876;2023-08-21T02:00:53;5.63;;;4.82;;
14584;SDS011;7379;51.506;11.876;2023-08-21T02:03:20;5.53;;;4.60;;
14584;SDS011;7379;51.506;11.876;2023-08-21T02:05:47;5.10;;;4.60;;
14584;SDS011;7379;51.506;11.876;2023-08-21T02:08:14;5.57;;;4.97;;
14584;SDS011;7379;51.506;11.876;2023-08-21T02:10:47;6.07;;;4.80;;
14584;SDS011;7379;51.506;11.876;2023-08-21T02:13:15;5.63;;;4.80;;
14584;SDS011;7379;51.506;11.876;2023-08-21T02:15:43;6.78;;;4.93;;
14584;SDS011;7379;51.506;11.876;2023-08-21T02:18:09;7.22;;;4.97;;
14584;SDS011;7379;51.506;11.876;2023-08-21T02:20:36;5.70;;;4.85;;
14584;SDS011;7379;51.506;11.876;2023-08-21T02:23:03;5.97;;;4.50;;
14584;SDS011;7379;51.506;11.876;2023-08-21T02:25:31;5.85;;;4.55;;
14584;SDS011;7379;51.506;11.876;2023-08-21T02:27:58;5.13;;;4.63;;
14584;SDS011;7379;51.506;11.876;2023-08-21T02:30:25;5.65;;;5.07;;
14584;SDS011;7379;51.506;11.876;2023-08-21T02:32:54;5.00;;;4.50;;
14584;SDS011;7379;51.506;11.876;2023-08-21T02:35:21;5.78;;;4.93;;
14584;SDS011;7379;51.506;11.876;2023-08-21T02:37:48;4.93;;;4.35;;
14584;SDS011;7379;51.506;11.876;2023-08-21T02:40:15;6.05;;;4.68;;
14584;SDS011;7379;51.506;11.876;2023-08-21T02:42:42;5.30;;;4.80;;
14584;SDS011;7379;51.506;11.876;2023-08-21T02:45:09;5.20;;;4.70;;
14584;SDS011;7379;51.506;11.876;2023-08-21T02:47:36;5.95;;;4.70;;
14584;SDS011;7379;51.506;11.876;2023-08-21T02:50:05;6.20;;;5.00;;
14584;SDS011;7379;51.506;11.876;2023-08-21T02:52:33;5.43;;;4.65;;
14584;SDS011;7379;51.506;11.876;2023-08-21T02:55:01;5.90;;;4.90;;
14584;SDS011;7379;51.506;11.876;2023-08-21T02:57:28;5.30;;;4.80;;
14584;SDS011;7379;51.506;11.876;2023-08-21T02:59:55;5.38;;;4.88;;
14584;SDS011;7379;51.506;11.876;2023-08-21T03:02:23;6.97;;;4.80;;
14584;SDS011;7379;51.506;11.876;2023-08-21T03:04:50;5.43;;;4.80;;
14584;SDS011;7379;51.506;11.876;2023-08-21T03:07:18;5.97;;;5.35;;
14584;SDS011;7379;51.506;11.876;2023-08-21T03:09:45;7.90;;;4.90;;
14584;SDS011;7379;51.506;11.876;2023-08-21T03:12:13;5.45;;;4.90;;
14584;SDS011;7379;51.506;11.876;2023-08-21T03:14:39;6.70;;;5.35;;
14584;SDS011;7379;51.506;11.876;2023-08-21T03:17:06;5.45;;;4.95;;
14584;SDS011;7379;51.506;11.876;2023-08-21T03:19:33;5.20;;;4.68;;
14584;SDS011;7379;51.506;11.876;2023-08-21T03:22:00;5.60;;;5.10;;
14584;SDS011;7379;51.506;11.876;2023-08-21T03:24:28;6.13;;;5.00;;
14584;SDS011;7379;51.506;11.876;2023-08-21T03:26:55;5.80;;;4.93;;
14584;SDS011;7379;51.506;11.876;2023-08-21T03:29:21;6.35;;;5.18;;
14584;SDS011;7379;51.506;11.876;2023-08-21T03:31:48;5.90;;;5.03;;
14584;SDS011;7379;51.506;11.876;2023-08-21T03:34:15;5.43;;;4.93;;
14584;SDS011;7379;51.506;11.876;2023-08-21T03:36:42;5.75;;;5.18;;
14584;SDS011;7379;51.506;11.876;2023-08-21T03:39:09;5.50;;;5.00;;
14584;SDS011;7379;51.506;11.876;2023-08-21T03:41:37;6.00;;;4.90;;
14584;SDS011;7379;51.506;11.876;2023-08-21T03:44:04;5.68;;;4.75;;
14584;SDS011;7379;51.506;11.876;2023-08-21T03:46:31;5.15;;;4.65;;
14584;SDS011;7379;51.506;11.876;2023-08-21T03:48:57;6.65;;;5.00;;
14584;SDS011;7379;51.506;11.876;2023-08-21T03:51:24;5.20;;;4.70;;
14584;SDS011;7379;51.506;11.876;2023-08-21T03:53:51;5.25;;;4.75;;
14584;SDS011;7379;51.506;11.876;2023-08-21T03:56:17;5.55;;;4.95;;
14584;SDS011;7379;51.506;11.876;2023-08-21T03:58:46;5.80;;;4.88;;
14584;SDS011;7379;51.506;11.876;2023-08-21T04:01:13;5.75;;;5.25;;
14584;SDS011;7379;51.506;11.876;2023-08-21T04:03:40;6.50;;;5.15;;
14584;SDS011;7379;51.506;11.876;2023-08-21T04:06:07;6.43;;;5.00;;
14584;SDS011;7379;51.506;11.876;2023-08-21T04:08:34;7.05;;;5.15;;
14584;SDS011;7379;51.506;11.876;2023-08-21T04:11:01;5.68;;;4.78;;
14584;SDS011;7379;51.506;11.876;2023-08-21T04:13:27;5.70;;;5.10;;
14584;SDS011;7379;51.506;11.876;2023-08-21T04:15:56;5.97;;;4.85;;
14584;SDS011;7379;51.506;11.876;2023-08-21T04:18:22;6.90;;;5.32;;
14584;SDS011;7379;51.506;11.876;2023-08-21T04:20:49;5.72;;;5.13;;
14584;SDS011;7379;51.506;11.876;2023-08-21T04:23:16;5.75;;;5.18;;
14584;SDS011;7379;51.506;11.876;2023-08-21T04:25:43;5.93;;;5.00;;
14584;SDS011;7379;51.506;11.876;2023-08-21T04:28:10;5.60;;;5.10;;
14584;SDS011;7379;51.506;11.876;2023-08-21T04:30:39;5.88;;;5.10;;
14584;SDS011;7379;51.506;11.876;2023-08-21T04:33:07;5.32;;;4.80;;
14584;SDS011;7379;51.506;11.876;2023-08-21T04:35:36;5.88;;;5.05;;
14584;SDS011;7379;51.506;11.876;2023-08-21T04:38:03;5.13;;;4.60;;
14584;SDS011;7379;51.506;11.876;2023-08-21T04:40:30;5.60;;;5.07;;
14584;SDS011;7379;51.506;11.876;2023-08-21T04:42:57;5.60;;;5.10;;
14584;SDS011;7379;51.506;11.876;2023-08-21T04:45:23;5.90;;;5.38;;
14584;SDS011;7379;51.506;11.876;2023-08-21T04:47:50;5.90;;;4.90;;
14584;SDS011;7379;51.506;11.876;2023-08-21T04:50:18;5.97;;;4.85;;
14584;SDS011;7379;51.506;11.876;2023-08-21T04:52:45;8.02;;;4.78;;
14584;SDS011;7379;51.506;11.876;2023-08-21T04:55:14;5.88;;;5.05;;
14584;SDS011;7379;51.506;11.876;2023-08-21T04:57:41;5.75;;;5.15;;
14584;SDS011;7379;51.506;11.876;2023-08-21T05:00:08;5.53;;;5.03;;
14584;SDS011;7379;51.506;11.876;2023-08-21T05:02:35;5.68;;;4.93;;
14584;SDS011;7379;51.506;11.876;2023-08-21T05:05:02;7.35;;;5.30;;
14584;SDS011;7379;51.506;11.876;2023-08-21T05:07:31;5.50;;;4.85;;
14584;SDS011;7379;51.506;11.876;2023-08-21T05:09:58;5.22;;;4.72;;
14584;SDS011;7379;51.506;11.876;2023-08-21T05:12:25;5.72;;;5.22;;
14584;SDS011;7379;51.506;11.876;2023-08-21T05:14:52;5.43;;;4.93;;
14584;SDS011;7379;51.506;11.876;2023-08-21T05:17:19;5.80;;;4.93;;
14584;SDS011;7379;51.506;11.876;2023-08-21T05:19:46;5.70;;;4.80;;
14584;SDS011;7379;51.506;11.876;2023-08-21T05:22:13;5.28;;;4.57;;
14584;SDS011;7379;51.506;11.876;2023-08-21T05:24:41;5.63;;;4.90;;
14584;SDS011;7379;51.506;11.876;2023-08-21T05:27:07;6.50;;;5.05;;
14584;SDS011;7379;51.506;11.876;2023-08-21T05:29:34;4.90;;;4.50;;
14584;SDS011;7379;51.506;11.876;2023-08-21T05:32:01;5.53;;;4.70;;
14584;SDS011;7379;51.506;11.876;2023-08-21T05:34:28;5.05;;;4.57;;
14584;SDS011;7379;51.506;11.876;2023-08-21T05:36:54;5.10;;;4.60;;
14584;SDS011;7379;51.506;11.876;2023-08-21T05:39:21;5.38;;;4.57;;
14584;SDS011;7379;51.506;11.876;2023-08-21T05:41:49;5.75;;;4.93;;
14584;SDS011;7379;51.506;11.876;2023-08-21T05:44:16;5.43;;;4.78;;
14584;SDS011;7379;51.506;11.876;2023-08-21T05:46:42;5.97;;;4.50;;
14584;SDS011;7379;51.506;11.876;2023-08-21T05:49:09;5.72;;;4.53;;
14584;SDS011;7379;51.506;11.876;2023-08-21T05:51:36;5.30;;;4.80;;
14584;SDS011;7379;51.506;11.876;2023-08-21T05:54:03;5.60;;;4.45;;
14584;SDS011;7379;51.506;11.876;2023-08-21T05:56:29;4.97;;;4.50;;
14584;SDS011;7379;51.506;11.876;2023-08-21T05:58:57;5.55;;;5.00;;
14584;SDS011;7379;51.506;11.876;2023-08-21T06:01:24;4.82;;;4.32;;
14584;SDS011;7379;51.506;11.876;2023-08-21T06:03:51;5.07;;;4.45;;
14584;SDS011;7379;51.506;11.876;2023-08-21T06:06:17;4.72;;;4.30;;
14584;SDS011;7379;51.506;11.876;2023-08-21T06:08:44;5.20;;;4.70;;
14584;SDS011;7379;51.506;11.876;2023-08-21T06:11:11;5.95;;;4.50;;
14584;SDS011;7379;51.506;11.876;2023-08-21T06:13:39;5.32;;;4.68;;
14584;SDS011;7379;51.506;11.876;2023-08-21T06:16:07;5.25;;;4.75;;
14584;SDS011;7379;51.506;11.876;2023-08-21T06:18:34;6.05;;;4.60;;
14584;SDS011;7379;51.506;11.876;2023-08-21T06:21:01;5.05;;;4.55;;
14584;SDS011;7379;51.506;11.876;2023-08-21T06:23:27;5.55;;;4.50;;
14584;SDS011;7379;51.506;11.876;2023-08-21T06:25:54;5.00;;;4.47;;
14584;SDS011;7379;51.506;11.876;2023-08-21T06:28:21;4.72;;;4.32;;
14584;SDS011;7379;51.506;11.876;2023-08-21T06:30:47;5.50;;;4.15;;
14584;SDS011;7379;51.506;11.876;2023-08-21T06:33:23;4.97;;;4.47;;
14584;SDS011;7379;51.506;11.876;2023-08-21T06:35:50;6.85;;;4.57;;
14584;SDS011;7379;51.506;11.876;2023-08-21T06:38:17;4.78;;;4.30;;
14584;SDS011;7379;51.506;11.876;2023-08-21T06:40:44;4.78;;;4.28;;
14584;SDS011;7379;51.506;11.876;2023-08-21T06:43:11;4.82;;;4.32;;
14584;SDS011;7379;51.506;11.876;2023-08-21T06:45:37;5.30;;;4.47;;
14584;SDS011;7379;51.506;11.876;2023-08-21T06:48:04;6.90;;;4.68;;
14584;SDS011;7379;51.506;11.876;2023-08-21T06:50:33;8.30;;;4.75;;
14584;SDS011;7379;51.506;11.876;2023-08-21T06:52:59;7.13;;;4.60;;
14584;SDS011;7379;51.506;11.876;2023-08-21T06:55:26;7.25;;;4.45;;
14584;SDS011;7379;51.506;11.876;2023-08-21T06:57:53;4.45;;;4.05;;
14584;SDS011;7379;51.506;11.876;2023-08-21T07:00:20;4.93;;;4.40;;
14584;SDS011;7379;51.506;11.876;2023-08-21T07:02:46;4.72;;;4.25;;
14584;SDS011;7379;51.506;11.876;2023-08-21T07:05:13;6.47;;;4.10;;
14584;SDS011;7379;51.506;11.876;2023-08-21T07:07:41;4.93;;;4.30;;
14584;SDS011;7379;51.506;11.876;2023-08-21T07:10:08;5.57;;;4.30;;
14584;SDS011;7379;51.506;11.876;2023-08-21T07:12:35;4.70;;;4.20;;
14584;SDS011;7379;51.506;11.876;2023-08-21T07:15:02;5.65;;;4.38;;
14584;SDS011;7379;51.506;11.876;2023-08-21T07:17:29;6.75;;;4.20;;
14584;SDS011;7379;51.506;11.876;2023-08-21T07:19:56;5.25;;;4.25;;
14584;SDS011;7379;51.506;11.876;2023-08-21T07:22:23;5.95;;;4.38;;
14584;SDS011;7379;51.506;11.876;2023-08-21T07:24:51;4.85;;;4.30;;
14584;SDS011;7379;51.506;11.876;2023-08-21T07:27:18;5.22;;;4.30;;
14584;SDS011;7379;51.506;11.876;2023-08-21T07:29:44;5.10;;;4.07;;
14584;SDS011;7379;51.506;11.876;2023-08-21T07:32:11;5.43;;;4.40;;
14584;SDS011;7379;51.506;11.876;2023-08-21T07:34:38;5.22;;;4.45;;
14584;SDS011;7379;51.506;11.876;2023-08-21T07:37:04;4.43;;;4.03;;
14584;SDS011;7379;51.506;11.876;2023-08-21T07:39:33;5.13;;;4.18;;
14584;SDS011;7379;51.506;11.876;2023-08-21T07:42:01;7.15;;;4.32;;
14584;SDS011;7379;51.506;11.876;2023-08-21T07:44:28;5.35;;;4.15;;
14584;SDS011;7379;51.506;11.876;2023-08-21T07:46:55;4.65;;;4.10;;
14584;SDS011;7379;51.506;11.876;2023-08-21T07:49:22;5.35;;;4.72;;
14584;SDS011;7379;51.506;11.876;2023-08-21T07:51:48;5.90;;;4.43;;
14584;SDS011;7379;51.506;11.876;2023-08-21T07:54:15;5.15;;;4.38;;
14584;SDS011;7379;51.506;11.876;2023-08-21T07:56:42;6.88;;;4.30;;
14584;SDS011;7379;51.506;11.876;2023-08-21T07:59:10;6.00;;;4.25;;
14584;SDS011;7379;51.506;11.876;2023-08-21T08:01:36;4.88;;;4.30;;
14584;SDS011;7379;51.506;11.876;2023-08-21T08:04:03;4.65;;;4.05;;
14584;SDS011;7379;51.506;11.876;2023-08-21T08:06:31;8.75;;;4.70;;
14584;SDS011;7379;51.506;11.876;2023-08-21T08:08:58;5.00;;;4.05;;
14584;SDS011;7379;51.506;11.876;2023-08-21T08:11:25;6.28;;;4.85;;
14584;SDS011;7379;51.506;11.876;2023-08-21T08:13:51;5.40;;;4.13;;
14584;SDS011;7379;51.506;11.876;2023-08-21T08:16:19;5.03;;;4.22;;
14584;SDS011;7379;51.506;11.876;2023-08-21T08:18:46;4.63;;;4.10;;
14584;SDS011;7379;51.506;11.876;2023-08-21T08:21:13;6.53;;;4.50;;
14584;SDS011;7379;51.506;11.876;2023-08-21T08:23:40;5.00;;;4.50;;
14584;SDS011;7379;51.506;11.876;2023-08-21T08:26:07;7.75;;;4.90;;
14584;SDS011;7379;51.506;11.876;2023-08-21T08:28:34;4.80;;;4.35;;
14584;SDS011;7379;51.506;11.876;2023-08-21T08:31:00;4.95;;;4.40;;
14584;SDS011;7379;51.506;11.876;2023-08-21T08:33:29;5.93;;;4.55;;
14584;SDS011;7379;51.506;11.876;2023-08-21T08:35:56;5.72;;;4.25;;
14584;SDS011;7379;51.506;11.876;2023-08-21T08:38:22;6.18;;;4.32;;
14584;SDS011;7379;51.506;11.876;2023-08-21T08:40:49;7.53;;;4.40;;
14584;SDS011;7379;51.506;11.876;2023-08-21T08:43:19;5.25;;;4.57;;
14584;SDS011;7379;51.506;11.876;2023-08-21T08:45:47;5.45;;;4.35;;
14584;SDS011;7379;51.506;11.876;2023-08-21T08:48:16;6.60;;;4.60;;
14584;SDS011;7379;51.506;11.876;2023-08-21T08:50:46;5.75;;;4.30;;
14584;SDS011;7379;51.506;11.876;2023-08-21T08:53:16;4.55;;;4.13;;
14584;SDS011;7379;51.506;11.876;2023-08-21T08:55:44;6.43;;;4.03;;
14584;SDS011;7379;51.506;11.876;2023-08-21T08:58:11;5.90;;;4.25;;
14584;SDS011;7379;51.506;11.876;2023-08-21T09:00:38;4.57;;;4.10;;
14584;SDS011;7379;51.506;11.876;2023-08-21T09:03:05;6.35;;;4.22;;
14584;SDS011;7379;51.506;11.876;2023-08-21T09:05:32;5.72;;;4.05;;
14584;SDS011;7379;51.506;11.876;2023-08-21T09:08:08;4.50;;;4.10;;
14584;SDS011;7379;51.506;11.876;2023-08-21T09:10:36;5.28;;;4.20;;
14584;SDS011;7379;51.506;11.876;2023-08-21T09:13:08;5.45;;;4.00;;
14584;SDS011;7379;51.506;11.876;2023-08-21T09:15:35;6.70;;;4.30;;
14584;SDS011;7379;51.506;11.876;2023-08-21T09:18:02;4.65;;;4.15;;
14584;SDS011;7379;51.506;11.876;2023-08-21T09:20:34;6.20;;;4.10;;
14584;SDS011;7379;51.506;11.876;2023-08-21T09:23:01;4.00;;;3.60;;
14584;SDS011;7379;51.506;11.876;2023-08-21T09:25:34;4.22;;;3.63;;
14584;SDS011;7379;51.506;11.876;2023-08-21T09:28:03;4.57;;;3.95;;
14584;SDS011;7379;51.506;11.876;2023-08-21T09:30:42;4.20;;;3.67;;
14584;SDS011;7379;51.506;11.876;2023-08-21T09:33:10;4.15;;;3.75;;
14584;SDS011;7379;51.506;11.876;2023-08-21T09:35:37;4.95;;;3.60;;
14584;SDS011;7379;51.506;11.876;2023-08-21T09:38:04;5.65;;;3.58;;
14584;SDS011;7379;51.506;11.876;2023-08-21T09:40:31;3.78;;;3.47;;
14584;SDS011;7379;51.506;11.876;2023-08-21T09:43:00;4.07;;;3.65;;
14584;SDS011;7379;51.506;11.876;2023-08-21T09:45:30;5.70;;;3.63;;
14584;SDS011;7379;51.506;11.876;2023-08-21T09:47:57;5.18;;;3.58;;
14584;SDS011;7379;51.506;11.876;2023-08-21T09:50:24;4.10;;;3.70;;
14584;SDS011;7379;51.506;11.876;2023-08-21T09:52:52;4.00;;;3.20;;
14584;SDS011;7379;51.506;11.876;2023-08-21T09:55:19;4.07;;;3.50;;
14584;SDS011;7379;51.506;11.876;2023-08-21T09:57:49;4.32;;;3.50;;
14584;SDS011;7379;51.506;11.876;2023-08-21T10:00:23;5.72;;;3.60;;
14584;SDS011;7379;51.506;11.876;2023-08-21T10:02:50;7.68;;;3.67;;
14584;SDS011;7379;51.506;11.876;2023-08-21T10:05:18;3.40;;;3.10;;
14584;SDS011;7379;51.506;11.876;2023-08-21T10:07:45;3.88;;;3.45;;
14584;SDS011;7379;51.506;11.876;2023-08-21T10:10:14;4.20;;;3.45;;
14584;SDS011;7379;51.506;11.876;2023-08-21T10:12:42;4.53;;;3.33;;
14584;SDS011;7379;51.506;11.876;2023-08-21T10:15:10;3.65;;;3.15;;
14584;SDS011;7379;51.506;11.876;2023-08-21T10:17:38;4.50;;;3.35;;
14584;SDS011;7379;51.506;11.876;2023-08-21T10:20:05;4.05;;;3.20;;
14584;SDS011;7379;51.506;11.876;2023-08-21T10:22:38;3.55;;;3.20;;
14584;SDS011;7379;51.506;11.876;2023-08-21T10:25:15;3.75;;;2.90;;
14584;SDS011;7379;51.506;11.876;2023-08-21T10:27:42;3.92;;;3.10;;
14584;SDS011;7379;51.506;11.876;2023-08-21T10:30:14;3.17;;;2.88;;
14584;SDS011;7379;51.506;11.876;2023-08-21T10:32:45;4.18;;;3.00;;
14584;SDS011;7379;51.506;11.876;2023-08-21T10:35:15;5.10;;;3.50;;
14584;SDS011;7379;51.506;11.876;2023-08-21T10:40:37;4.63;;;2.80;;
14584;SDS011;7379;51.506;11.876;2023-08-21T10:46:07;3.10;;;2.75;;
14584;SDS011;7379;51.506;11.876;2023-08-21T10:48:34;3.00;;;2.70;;
14584;SDS011;7379;51.506;11.876;2023-08-21T10:51:01;4.70;;;3.20;;
14584;SDS011;7379;51.506;11.876;2023-08-21T10:53:29;4.35;;;2.90;;
14584;SDS011;7379;51.506;11.876;2023-08-21T10:55:56;7.35;;;3.00;;
14584;SDS011;7379;51.506;11.876;2023-08-21T10:58:26;4.20;;;3.20;;
14584;SDS011;7379;51.506;11.876;2023-08-21T11:00:56;4.00;;;3.22;;
14584;SDS011;7379;51.506;11.876;2023-08-21T11:03:25;3.70;;;2.90;;
14584;SDS011;7379;51.506;11.876;2023-08-21T11:06:01;6.00;;;3.15;;
14584;SDS011;7379;51.506;11.876;2023-08-21T11:08:29;3.83;;;3.22;;
14584;SDS011;7379;51.506;11.876;2023-08-21T11:10:57;3.20;;;2.90;;
14584;SDS011;7379;51.506;11.876;2023-08-21T11:13:24;3.88;;;2.80;;
14584;SDS011;7379;51.506;11.876;2023-08-21T11:15:57;3.70;;;3.00;;
14584;SDS011;7379;51.506;11.876;2023-08-21T11:18:30;4.47;;;3.20;;
14584;SDS011;7379;51.506;11.876;2023-08-21T11:21:04;3.83;;;3.10;;
14584;SDS011;7379;51.506;11.876;2023-08-21T11:23:35;5.57;;;3.00;;
14584;SDS011;7379;51.506;11.876;2023-08-21T11:26:04;3.35;;;3.05;;
14584;SDS011;7379;51.506;11.876;2023-08-21T11:28:32;3.20;;;2.90;;
14584;SDS011;7379;51.506;11.876;2023-08-21T11:30:59;3.53;;;3.22;;
14584;SDS011;7379;51.506;11.876;2023-08-21T11:33:26;5.40;;;3.28;;
14584;SDS011;7379;51.506;11.876;2023-08-21T11:35:55;3.58;;;3.28;;
14584;SDS011;7379;51.506;11.876;2023-08-21T11:38:24;6.35;;;3.40;;
14584;SDS011;7379;51.506;11.876;2023-08-21T11:40:53;4.47;;;3.45;;
14584;SDS011;7379;51.506;11.876;2023-08-21T11:43:20;3.55;;;3.25;;
14584;SDS011;7379;51.506;11.876;2023-08-21T11:45:48;3.60;;;3.28;;
14584;SDS011;7379;51.506;11.876;2023-08-21T11:48:15;4.55;;;3.65;;
14584;SDS011;7379;51.506;11.876;2023-08-21T11:50:45;5.75;;;3.55;;
14584;SDS011;7379;51.506;11.876;2023-08-21T11:53:15;4.03;;;3.33;;
14584;SDS011;7379;51.506;11.876;2023-08-21T11:55:57;5.32;;;3.63;;
14584;SDS011;7379;51.506;11.876;2023-08-21T11:58:26;4.65;;;3.83;;
14584;SDS011;7379;51.506;11.876;2023-08-21T12:00:52;4.90;;;3.80;;
14584;SDS011;7379;51.506;11.876;2023-08-21T12:03:19;4.75;;;3.78;;
14584;SDS011;7379;51.506;11.876;2023-08-21T12:05:46;4.65;;;3.80;;
14584;SDS011;7379;51.506;11.876;2023-08-21T12:08:13;5.43;;;4.00;;
14584;SDS011;7379;51.506;11.876;2023-08-21T12:10:41;4.95;;;3.90;;
14584;SDS011;7379;51.506;11.876;2023-08-21T12:13:07;4.00;;;3.60;;
14584;SDS011;7379;51.506;11.876;2023-08-21T12:15:34;4.20;;;3.80;;
14584;SDS011;7379;51.506;11.876;2023-08-21T12:18:01;5.35;;;4.00;;
14584;SDS011;7379;51.506;11.876;2023-08-21T12:20:28;4.63;;;3.63;;
14584;SDS011;7379;51.506;11.876;2023-08-21T12:22:54;4.85;;;4.07;;
14584;SDS011;7379;51.506;11.876;2023-08-21T12:25:21;6.25;;;4.03;;
14584;SDS011;7379;51.506;11.876;2023-08-21T12:27:50;6.22;;;3.88;;
14584;SDS011;7379;51.506;11.876;2023-08-21T12:30:17;5.65;;;3.92;;
14584;SDS011;7379;51.506;11.876;2023-08-21T12:32:43;5.30;;;3.67;;
14584;SDS011;7379;51.506;11.876;2023-08-21T12:35:10;5.28;;;3.90;;
14584;SDS011;7379;51.506;11.876;2023-08-21T12:37:37;4.32;;;3.92;;
14584;SDS011;7379;51.506;11.876;2023-08-21T12:40:04;5.80;;;4.07;;
14584;SDS011;7379;51.506;11.876;2023-08-21T12:42:33;5.30;;;3.90;;
14584;SDS011;7379;51.506;11.876;2023-08-21T12:45:01;4.28;;;3.88;;
14584;SDS011;7379;51.506;11.876;2023-08-21T12:47:28;3.92;;;3.55;;
14584;SDS011;7379;51.506;11.876;2023-08-21T12:49:54;5.43;;;3.85;;
14584;SDS011;7379;51.506;11.876;2023-08-21T12:52:21;4.07;;;3.67;;
14584;SDS011;7379;51.506;11.876;2023-08-21T12:54:48;5.32;;;3.92;;
14584;SDS011;7379;51.506;11.876;2023-08-21T12:57:15;4.75;;;3.90;;
14584;SDS011;7379;51.506;11.876;2023-08-21T12:59:41;5.93;;;3.75;;
14584;SDS011;7379;51.506;11.876;2023-08-21T13:02:10;3.95;;;3.55;;
14584;SDS011;7379;51.506;11.876;2023-08-21T13:04:36;4.00;;;3.60;;
14584;SDS011;7379;51.506;11.876;2023-08-21T13:07:03;6.15;;;4.20;;
14584;SDS011;7379;51.506;11.876;2023-08-21T13:09:30;4.28;;;3.60;;
14584;SDS011;7379;51.506;11.876;2023-08-21T13:11:58;4.53;;;3.67;;
14584;SDS011;7379;51.506;11.876;2023-08-21T13:14:25;6.25;;;3.80;;
14584;SDS011;7379;51.506;11.876;2023-08-21T13:16:52;6.13;;;3.72;;
14584;SDS011;7379;51.506;11.876;2023-08-21T13:19:20;6.70;;;3.97;;
14584;SDS011;7379;51.506;11.876;2023-08-21T13:21:47;6.38;;;3.88;;
14584;SDS011;7379;51.506;11.876;2023-08-21T13:24:14;4.43;;;3.60;;
14584;SDS011;7379;51.506;11.876;2023-08-21T13:26:40;3.70;;;3.40;;
14584;SDS011;7379;51.506;11.876;2023-08-21T13:29:07;4.05;;;3.70;;
14584;SDS011;7379;51.506;11.876;2023-08-21T13:31:34;4.47;;;3.92;;
14584;SDS011;7379;51.506;11.876;2023-08-21T13:34:01;5.30;;;3.90;;
14584;SDS011;7379;51.506;11.876;2023-08-21T13:36:30;4.43;;;3.70;;
14584;SDS011;7379;51.506;11.876;2023-08-21T13:38:57;5.43;;;3.75;;
14584;SDS011;7379;51.506;11.876;2023-08-21T13:41:23;4.75;;;3.63;;
14584;SDS011;7379;51.506;11.876;2023-08-21T13:43:50;4.00;;;3.60;;
14584;SDS011;7379;51.506;11.876;2023-08-21T13:46:19;3.95;;;3.63;;
14584;SDS011;7379;51.506;11.876;2023-08-21T13:48:46;4.38;;;3.70;;
14584;SDS011;7379;51.506;11.876;2023-08-21T13:51:12;4.30;;;3.47;;
14584;SDS011;7379;51.506;11.876;2023-08-21T13:53:40;4.10;;;3.70;;
14584;SDS011;7379;51.506;11.876;2023-08-21T13:56:07;3.58;;;3.28;;
14584;SDS011;7379;51.506;11.876;2023-08-21T13:58:34;4.75;;;3.90;;
14584;SDS011;7379;51.506;11.876;2023-08-21T14:01:01;4.13;;;3.78;;
14584;SDS011;7379;51.506;11.876;2023-08-21T14:03:28;7.35;;;3.90;;
14584;SDS011;7379;51.506;11.876;2023-08-21T14:05:55;4.28;;;3.70;;
14584;SDS011;7379;51.506;11.876;2023-08-21T14:08:22;4.68;;;4.07;;
14584;SDS011;7379;51.506;11.876;2023-08-21T14:10:50;3.90;;;3.50;;
14584;SDS011;7379;51.506;11.876;2023-08-21T14:13:16;10.45;;;4.00;;
14584;SDS011;7379;51.506;11.876;2023-08-21T14:15:43;4.93;;;3.60;;
14584;SDS011;7379;51.506;11.876;2023-08-21T14:18:10;4.03;;;3.30;;
14584;SDS011;7379;51.506;11.876;2023-08-21T14:20:37;5.90;;;3.50;;
14584;SDS011;7379;51.506;11.876;2023-08-21T14:23:04;4.28;;;3.38;;
14584;SDS011;7379;51.506;11.876;2023-08-21T14:25:31;4.22;;;3.38;;
14584;SDS011;7379;51.506;11.876;2023-08-21T14:27:59;4.05;;;3.30;;
14584;SDS011;7379;51.506;11.876;2023-08-21T14:30:26;4.38;;;2.97;;
14584;SDS011;7379;51.506;11.876;2023-08-21T14:32:53;5.90;;;3.50;;
14584;SDS011;7379;51.506;11.876;2023-08-21T14:35:20;3.90;;;3.38;;
14584;SDS011;7379;51.506;11.876;2023-08-21T14:37:46;5.70;;;3.42;;
14584;SDS011;7379;51.506;11.876;2023-08-21T14:40:13;4.63;;;3.47;;
14584;SDS011;7379;51.506;11.876;2023-08-21T14:42:40;4.60;;;3.60;;
14584;SDS011;7379;51.506;11.876;2023-08-21T14:45:09;3.83;;;3.40;;
14584;SDS011;7379;51.506;11.876;2023-08-21T14:47:37;4.10;;;3.15;;
14584;SDS011;7379;51.506;11.876;2023-08-21T14:50:04;4.32;;;3.30;;
14584;SDS011;7379;51.506;11.876;2023-08-21T14:52:32;3.78;;;3.38;;
14584;SDS011;7379;51.506;11.876;2023-08-21T14:54:58;3.97;;;3.53;;